createdAt,value
2023-01-11T00:01:53.826Z,3.38
2023-01-11T00:04:20.729Z,1.13
2023-01-11T00:06:47.295Z,1.25
2023-01-11T00:09:13.963Z,0.50
2023-01-11T00:11:40.468Z,3.38
2023-01-11T00:14:06.935Z,0.80
2023-01-11T00:16:33.441Z,2.15
2023-01-11T00:18:59.927Z,1.13
2023-01-11T00:21:26.783Z,1.00
2023-01-11T00:23:53.333Z,1.30
2023-01-11T00:26:19.811Z,0.63
2023-01-11T00:28:49.123Z,0.80
2023-01-11T00:31:16.657Z,1.15
2023-01-11T00:33:43.157Z,0.80
2023-01-11T00:36:09.867Z,0.40
2023-01-11T00:38:46.771Z,1.30
2023-01-11T00:44:18.855Z,0.95
2023-01-11T00:47:03.673Z,2.22
2023-01-11T00:49:30.702Z,0.98
2023-01-11T00:51:57.327Z,1.10
2023-01-11T00:54:23.800Z,1.17
2023-01-11T00:56:50.340Z,1.83
2023-01-11T00:59:16.832Z,1.13
2023-01-11T01:01:43.328Z,1.25
2023-01-11T01:04:09.927Z,0.68
2023-01-11T01:06:36.689Z,0.75
2023-01-11T01:09:03.241Z,1.40
2023-01-11T01:11:29.711Z,3.72
2023-01-11T01:14:14.815Z,1.55
2023-01-11T01:16:42.337Z,1.98
2023-01-11T01:19:09.363Z,1.20
2023-01-11T01:21:37.423Z,1.52
2023-01-11T01:24:04.185Z,0.55
2023-01-11T01:26:31.012Z,1.60
2023-01-11T01:28:57.470Z,2.28
2023-01-11T01:31:24.042Z,1.77
2023-01-11T01:33:50.547Z,1.02
2023-01-11T01:36:17.119Z,1.52
2023-01-11T01:38:43.582Z,0.88
2023-01-11T01:41:12.982Z,3.42
2023-01-11T01:43:49.899Z,0.65
2023-01-11T01:48:48.157Z,0.90
2023-01-11T01:51:21.160Z,0.50
2023-01-11T01:53:49.853Z,0.35
2023-01-11T01:56:25.185Z,0.70
2023-01-11T01:58:57.940Z,1.50
2023-01-11T02:01:43.310Z,0.30
2023-01-11T02:04:20.813Z,1.33
2023-01-11T02:06:48.182Z,1.23
2023-01-11T02:09:27.227Z,0.77
2023-01-11T02:11:56.589Z,0.47
2023-01-11T02:14:24.921Z,0.70
2023-01-11T02:16:51.606Z,2.92
2023-01-11T02:19:48.842Z,0.50
2023-01-11T02:23:07.957Z,1.10
2023-01-11T02:25:58.733Z,0.80
2023-01-11T02:28:40.319Z,2.30
2023-01-11T02:31:21.953Z,0.90
2023-01-11T02:34:00.564Z,0.30
2023-01-11T02:36:37.883Z,0.38
2023-01-11T02:39:30.987Z,1.02
2023-01-11T02:42:19.102Z,1.25
2023-01-11T02:45:04.014Z,0.40
2023-01-11T02:47:33.909Z,0.80
2023-01-11T02:50:16.551Z,0.90
2023-01-11T02:52:52.420Z,0.80
2023-01-11T02:55:24.290Z,1.17
2023-01-11T02:57:54.296Z,0.60
2023-01-11T03:00:21.946Z,0.60
2023-01-11T03:03:16.333Z,0.32
2023-01-11T03:05:55.681Z,1.98
2023-01-11T03:08:22.063Z,0.73
2023-01-11T03:10:48.462Z,0.13
2023-01-11T03:13:23.752Z,1.02
2023-01-11T03:16:21.894Z,0.32
2023-01-11T03:19:21.482Z,0.43
2023-01-11T03:22:03.846Z,0.20
2023-01-11T03:24:46.300Z,1.25
2023-01-11T03:27:26.420Z,0.50
2023-01-11T03:30:05.743Z,0.30
2023-01-11T03:32:35.216Z,0.35
2023-01-11T03:35:31.352Z,1.95
2023-01-11T03:38:05.911Z,1.38
2023-01-11T03:40:39.308Z,0.32
2023-01-11T03:43:12.324Z,0.75
2023-01-11T03:46:00.002Z,1.58
2023-01-11T03:48:32.796Z,0.50
2023-01-11T03:51:01.698Z,1.10
2023-01-11T03:53:31.717Z,0.77
2023-01-11T03:56:00.631Z,1.08
2023-01-11T03:58:27.870Z,0.80
2023-01-11T04:00:56.402Z,0.75
2023-01-11T04:03:25.506Z,0.38
2023-01-11T04:05:57.956Z,0.20
2023-01-11T04:08:24.566Z,0.93
2023-01-11T04:10:51.017Z,0.90
2023-01-11T04:13:17.607Z,0.17
2023-01-11T04:15:44.219Z,0.90
2023-01-11T04:18:10.795Z,0.20
2023-01-11T04:20:40.266Z,1.38
2023-01-11T04:23:08.263Z,0.55
2023-01-11T04:25:34.830Z,0.20
2023-01-11T04:28:01.518Z,0.32
2023-01-11T04:30:27.983Z,1.13
2023-01-11T04:32:56.880Z,0.43
2023-01-11T04:35:23.497Z,0.45
2023-01-11T04:37:53.882Z,2.63
2023-01-11T04:40:20.454Z,0.40
2023-01-11T04:42:47.172Z,0.82
2023-01-11T04:45:13.717Z,0.15
2023-01-11T04:47:40.311Z,0.90
2023-01-11T04:50:08.535Z,3.75
2023-01-11T04:52:35.088Z,2.33
2023-01-11T04:55:01.574Z,0.57
2023-01-11T04:57:28.073Z,1.13
2023-01-11T04:59:54.494Z,0.90
2023-01-11T05:02:20.980Z,0.50
2023-01-11T05:04:47.478Z,1.48
2023-01-11T05:07:14.116Z,0.70
2023-01-11T05:09:40.908Z,0.63
2023-01-11T05:12:07.486Z,0.70
2023-01-11T05:14:33.975Z,0.73
2023-01-11T05:17:00.503Z,0.47
2023-01-11T05:19:27.086Z,0.63
2023-01-11T05:21:53.618Z,1.35
2023-01-11T05:24:20.132Z,0.47
2023-01-11T05:26:48.456Z,2.30
2023-01-11T05:29:19.191Z,0.65
2023-01-11T05:34:14.328Z,0.20
2023-01-11T05:36:41.372Z,0.95
2023-01-11T05:39:08.483Z,1.42
2023-01-11T05:41:36.068Z,0.17
2023-01-11T05:44:21.256Z,0.20
2023-01-11T05:46:47.767Z,0.60
2023-01-11T05:49:14.990Z,0.15
2023-01-11T05:51:42.759Z,0.22
2023-01-11T05:54:14.172Z,2.78
2023-01-11T05:56:42.522Z,0.10
2023-01-11T05:59:09.183Z,0.82
2023-01-11T06:01:36.108Z,2.53
2023-01-11T06:04:02.691Z,2.05
2023-01-11T06:06:29.686Z,0.30
2023-01-11T06:08:56.301Z,0.57
2023-01-11T06:11:23.733Z,0.98
2023-01-11T06:13:50.284Z,0.52
2023-01-11T06:16:19.447Z,0.55
2023-01-11T06:18:51.547Z,0.43
2023-01-11T06:21:18.603Z,3.40
2023-01-11T06:23:47.646Z,0.40
2023-01-11T06:26:16.816Z,1.75
2023-01-11T06:28:43.762Z,0.68
2023-01-11T06:31:10.639Z,0.20
2023-01-11T06:33:37.243Z,0.63
2023-01-11T06:36:06.504Z,2.13
2023-01-11T06:38:36.102Z,1.42
2023-01-11T06:41:05.388Z,3.97
2023-01-11T06:43:32.329Z,4.45
2023-01-11T06:45:59.171Z,1.20
2023-01-11T06:48:26.441Z,3.80
2023-01-11T06:50:55.941Z,0.88
2023-01-11T06:53:24.972Z,1.30
2023-01-11T06:55:54.784Z,3.28
2023-01-11T06:58:23.779Z,1.85
2023-01-11T07:00:52.102Z,1.02
2023-01-11T07:03:20.500Z,1.35
2023-01-11T07:05:47.679Z,0.63
2023-01-11T07:08:14.189Z,1.95
2023-01-11T07:10:41.081Z,2.78
2023-01-11T07:13:07.845Z,1.88
2023-01-11T07:15:34.916Z,1.38
2023-01-11T07:18:01.739Z,1.42
2023-01-11T07:20:29.084Z,0.20
2023-01-11T07:22:59.657Z,0.55
2023-01-11T07:25:30.472Z,0.55
2023-01-11T07:28:02.430Z,1.30
2023-01-11T07:30:31.226Z,0.73
2023-01-11T07:32:58.930Z,1.80
2023-01-11T07:35:28.013Z,1.83
2023-01-11T07:37:55.295Z,1.02
2023-01-11T07:40:21.874Z,1.85
2023-01-11T07:43:11.650Z,2.05
2023-01-11T07:45:45.809Z,2.55
2023-01-11T07:48:13.643Z,2.83
2023-01-11T07:50:44.269Z,1.92
2023-01-11T07:53:11.655Z,3.90
2023-01-11T07:55:39.684Z,3.13
2023-01-11T07:58:07.732Z,3.28
2023-01-11T08:00:34.311Z,3.38
2023-01-11T08:03:02.114Z,6.03
2023-01-11T08:05:29.064Z,4.93
2023-01-11T08:07:55.559Z,3.70
2023-01-11T08:10:22.055Z,5.30
2023-01-11T08:13:07.908Z,4.50
2023-01-11T08:15:42.347Z,7.22
2023-01-11T08:18:09.758Z,5.20
2023-01-11T08:20:36.379Z,5.22
2023-01-11T08:23:08.035Z,4.45
2023-01-11T08:25:34.587Z,5.93
2023-01-11T08:28:03.015Z,3.03
2023-01-11T08:30:30.227Z,5.13
2023-01-11T08:32:57.622Z,4.18
2023-01-11T08:35:25.754Z,5.70
2023-01-11T08:37:52.455Z,4.65
2023-01-11T08:40:19.525Z,3.78
2023-01-11T08:42:46.332Z,4.25
2023-01-11T08:45:12.838Z,3.20
2023-01-11T08:47:39.369Z,5.55
2023-01-11T08:50:08.254Z,4.45
2023-01-11T08:52:34.849Z,5.30
2023-01-11T08:55:01.510Z,4.18
2023-01-11T08:57:28.124Z,15.25
2023-01-11T08:59:54.602Z,7.40
2023-01-11T09:02:21.221Z,7.38
2023-01-11T09:04:47.819Z,7.38
2023-01-11T09:07:14.343Z,8.20
2023-01-11T09:09:41.158Z,8.80
2023-01-11T09:12:07.847Z,9.23
2023-01-11T09:14:34.721Z,10.07
2023-01-11T09:17:01.341Z,12.75
2023-01-11T09:19:27.834Z,13.27
2023-01-11T09:21:57.221Z,11.18
2023-01-11T09:24:23.728Z,12.77
2023-01-11T09:26:50.395Z,16.25
2023-01-11T09:29:17.140Z,15.38
2023-01-11T09:31:43.688Z,18.48
2023-01-11T09:34:12.645Z,10.25
2023-01-11T09:36:40.295Z,13.15
2023-01-11T09:39:11.599Z,13.68
2023-01-11T09:41:54.326Z,15.43
2023-01-11T09:44:25.540Z,20.40
2023-01-11T09:47:10.008Z,15.60
2023-01-11T09:49:40.707Z,16.75
2023-01-11T09:52:24.400Z,18.70
2023-01-11T09:54:51.587Z,17.65
2023-01-11T09:57:32.332Z,28.45
2023-01-11T10:00:19.475Z,12.35
2023-01-11T10:02:45.967Z,22.00
2023-01-11T10:05:37.521Z,18.40
2023-01-11T10:18:22.844Z,20.45
2023-01-11T10:18:28.492Z,19.73
2023-01-11T10:20:53.116Z,14.18
2023-01-11T10:23:28.653Z,17.35
2023-01-11T10:25:58.776Z,22.15
2023-01-11T10:28:58.598Z,19.88
2023-01-11T10:31:49.379Z,18.75
2023-01-11T10:34:39.223Z,27.00
2023-01-11T10:37:39.332Z,17.33
2023-01-11T10:40:42.822Z,18.27
2023-01-11T10:43:21.835Z,17.50
2023-01-11T10:45:53.310Z,20.77
2023-01-11T10:48:39.700Z,20.48
2023-01-11T10:51:36.915Z,13.05
2023-01-11T10:54:26.979Z,16.77
2023-01-11T10:57:20.445Z,16.35
2023-01-11T10:59:48.770Z,14.88
2023-01-11T11:02:42.729Z,15.85
2023-01-11T11:05:46.731Z,18.08
2023-01-11T11:08:19.291Z,12.88
2023-01-11T11:10:48.773Z,21.10
2023-01-11T11:13:57.199Z,16.52
2023-01-11T11:16:23.695Z,16.48
2023-01-11T11:18:58.375Z,24.73
2023-01-11T11:21:39.010Z,19.52
2023-01-11T11:24:20.181Z,13.07
2023-01-11T11:26:55.253Z,16.25
2023-01-11T11:29:23.584Z,11.32
2023-01-11T11:31:51.173Z,16.23
2023-01-11T11:34:20.765Z,18.65
2023-01-11T11:36:50.216Z,14.90
2023-01-11T11:39:21.244Z,20.10
2023-01-11T11:41:53.162Z,16.35
2023-01-11T11:44:24.579Z,21.23
2023-01-11T11:47:01.549Z,17.00
2023-01-11T11:51:56.603Z,12.45
2023-01-11T11:54:37.556Z,14.43
2023-01-11T11:57:20.614Z,12.90
2023-01-11T11:59:49.875Z,12.60
2023-01-11T12:02:29.950Z,15.88
2023-01-11T12:05:05.131Z,14.82
2023-01-11T12:07:49.784Z,16.73
2023-01-11T12:10:25.692Z,21.40
2023-01-11T12:12:56.924Z,14.00
2023-01-11T12:15:29.495Z,15.32
2023-01-11T12:18:22.870Z,18.90
2023-01-11T12:20:49.605Z,11.68
2023-01-11T12:23:25.024Z,11.30
2023-01-11T12:26:09.293Z,15.15
2023-01-11T12:29:05.481Z,15.63
2023-01-11T12:31:40.650Z,16.00
2023-01-11T12:34:13.278Z,10.95
2023-01-11T12:36:54.863Z,16.40
2023-01-11T12:39:40.353Z,11.20
2023-01-11T12:42:37.363Z,24.08
2023-01-11T12:45:25.074Z,14.32
2023-01-11T12:48:38.125Z,9.25
2023-01-11T12:51:14.050Z,12.45
2023-01-11T12:54:16.623Z,21.40
2023-01-11T12:56:54.969Z,16.23
2023-01-11T12:59:52.887Z,16.25
2023-01-11T13:03:00.522Z,12.75
2023-01-11T13:05:35.633Z,18.60
2023-01-11T13:08:04.844Z,13.43
2023-01-11T13:10:55.668Z,13.90
2023-01-11T13:13:58.436Z,13.75
2023-01-11T13:16:35.732Z,15.68
2023-01-11T13:19:10.635Z,14.95
2023-01-11T13:21:44.330Z,18.08
2023-01-11T13:24:14.384Z,13.93
2023-01-11T13:26:51.060Z,18.38
2023-01-11T13:29:33.643Z,14.18
2023-01-11T13:32:04.106Z,14.00
2023-01-11T13:35:08.874Z,11.35
2023-01-11T13:37:39.820Z,14.13
2023-01-11T13:40:30.370Z,18.67
2023-01-11T13:43:03.726Z,14.10
2023-01-11T13:45:44.097Z,12.45
2023-01-11T13:48:28.458Z,16.95
2023-01-11T13:51:02.937Z,15.52
2023-01-11T13:53:43.793Z,13.60
2023-01-11T13:56:18.957Z,17.23
2023-01-11T13:58:56.255Z,10.95
2023-01-11T14:01:56.111Z,16.20
2023-01-11T14:04:47.251Z,19.45
2023-01-11T14:07:44.377Z,15.73
2023-01-11T14:10:21.667Z,12.60
2023-01-11T14:13:36.339Z,14.35
2023-01-11T14:16:13.973Z,18.88
2023-01-11T14:18:56.854Z,17.02
2023-01-11T14:21:33.690Z,18.55
2023-01-11T14:26:36.707Z,14.20
2023-01-11T14:29:41.390Z,23.38
2023-01-11T14:32:21.041Z,15.25
2023-01-11T14:35:15.421Z,19.67
2023-01-11T14:38:23.360Z,9.77
2023-01-11T14:43:43.748Z,14.18
2023-01-11T14:46:48.936Z,16.67
2023-01-11T14:49:37.453Z,19.05
2023-01-11T14:52:10.607Z,18.60
2023-01-11T14:54:49.417Z,17.85
2023-01-11T14:57:42.930Z,25.38
2023-01-11T15:00:18.604Z,19.55
2023-01-11T15:03:05.359Z,24.13
2023-01-11T15:05:32.805Z,17.27
2023-01-11T15:08:14.652Z,13.38
2023-01-11T15:11:04.210Z,19.20
2023-01-11T15:13:43.355Z,17.38
2023-01-11T15:16:48.633Z,15.15
2023-01-11T15:19:36.747Z,17.10
2023-01-11T15:22:05.978Z,23.58
2023-01-11T15:24:34.650Z,22.08
2023-01-11T15:27:02.580Z,17.35
2023-01-11T15:29:32.083Z,14.27
2023-01-11T15:32:01.598Z,17.48
2023-01-11T15:34:31.162Z,23.17
2023-01-11T15:36:57.697Z,25.50
2023-01-11T15:39:44.587Z,21.77
2023-01-11T15:42:16.843Z,21.33
2023-01-11T15:44:49.091Z,26.45
2023-01-11T15:47:21.543Z,19.02
2023-01-11T15:49:57.104Z,16.40
2023-01-11T15:52:53.044Z,17.30
2023-01-11T15:55:51.298Z,14.75
2023-01-11T15:58:36.240Z,16.42
2023-01-11T16:01:21.977Z,22.67
2023-01-11T16:04:06.999Z,20.50
2023-01-11T16:06:41.936Z,13.57
2023-01-11T16:09:27.009Z,11.70
2023-01-11T16:11:53.531Z,20.70
2023-01-11T16:14:58.219Z,16.15
2023-01-11T16:17:25.226Z,16.80
2023-01-11T16:19:56.663Z,17.80
2023-01-11T16:22:25.857Z,11.52
2023-01-11T16:24:57.002Z,19.10
2023-01-11T16:27:34.025Z,21.33
2023-01-11T16:30:01.208Z,12.23
2023-01-11T16:32:32.722Z,13.95
2023-01-11T16:35:03.655Z,11.95
2023-01-11T16:37:44.415Z,16.40
2023-01-11T16:40:11.304Z,14.00
2023-01-11T16:42:53.341Z,13.73
2023-01-11T16:45:23.161Z,13.35
2023-01-11T16:48:06.395Z,18.38
2023-01-11T16:50:34.629Z,9.27
2023-01-11T16:53:05.047Z,16.67
2023-01-11T16:55:36.577Z,11.05
2023-01-11T16:58:17.404Z,11.85
2023-01-11T17:00:57.429Z,19.90
2023-01-11T17:03:26.193Z,13.32
2023-01-11T17:06:15.410Z,16.35
2023-01-11T17:08:47.841Z,14.43
2023-01-11T17:11:22.568Z,13.57
2023-01-11T17:14:13.846Z,15.55
2023-01-11T17:16:47.893Z,12.23
2023-01-11T17:19:23.595Z,9.27
2023-01-11T17:21:54.558Z,11.82
2023-01-11T17:24:25.206Z,8.73
2023-01-11T17:26:58.072Z,13.93
2023-01-11T17:29:45.410Z,12.57
2023-01-11T17:32:20.019Z,20.05
2023-01-11T17:34:48.982Z,12.48
2023-01-11T17:37:18.297Z,18.35
2023-01-11T17:39:51.840Z,14.95
2023-01-11T17:42:38.105Z,12.13
2023-01-11T17:45:20.791Z,18.38
2023-01-11T17:47:50.481Z,15.93
2023-01-11T17:50:24.851Z,15.40
2023-01-11T17:53:00.716Z,9.32
2023-01-11T17:55:27.944Z,14.35
2023-01-11T17:58:19.770Z,12.25
2023-01-11T18:01:15.660Z,12.57
2023-01-11T18:04:01.822Z,16.13
2023-01-11T18:06:45.040Z,14.13
2023-01-11T18:12:16.476Z,13.07
2023-01-11T18:14:54.846Z,9.30
2023-01-11T18:17:30.800Z,16.63
2023-01-11T18:19:57.977Z,15.05
2023-01-11T18:22:31.864Z,12.23
2023-01-11T18:25:04.626Z,14.10
2023-01-11T18:27:35.179Z,15.85
2023-01-11T18:30:08.587Z,10.20
2023-01-11T18:32:40.996Z,10.23
2023-01-11T18:35:18.328Z,17.60
2023-01-11T18:37:45.115Z,12.52
2023-01-11T18:40:16.026Z,18.50
2023-01-11T18:42:49.678Z,14.85
2023-01-11T18:45:16.480Z,12.13
2023-01-11T18:47:43.253Z,17.45
2023-01-11T18:50:12.497Z,12.60
2023-01-11T18:52:39.280Z,9.57
2023-01-11T18:55:06.651Z,12.23
2023-01-11T18:57:33.224Z,13.18
2023-01-11T18:59:59.784Z,14.90
2023-01-11T19:02:28.628Z,14.40
2023-01-11T19:04:56.672Z,16.95
2023-01-11T19:07:24.801Z,13.80
2023-01-11T19:09:55.401Z,14.25
2023-01-11T19:12:25.161Z,12.68
2023-01-11T19:14:56.277Z,16.88
2023-01-11T19:17:30.293Z,16.48
2023-01-11T19:20:01.424Z,15.23
2023-01-11T19:22:28.643Z,16.90
2023-01-11T19:24:55.499Z,13.55
2023-01-11T19:27:23.093Z,11.43
2023-01-11T19:29:49.881Z,15.95
2023-01-11T19:32:17.351Z,13.80
2023-01-11T19:34:43.892Z,12.40
2023-01-11T19:37:10.723Z,14.15
2023-01-11T19:39:37.329Z,12.18
2023-01-11T19:42:04.026Z,9.63
2023-01-11T19:44:33.469Z,12.82
2023-01-11T19:47:17.217Z,12.27
2023-01-11T19:49:44.066Z,12.57
2023-01-11T19:52:13.748Z,19.60
2023-01-11T19:54:42.324Z,18.30
2023-01-11T19:57:14.410Z,15.93
2023-01-11T19:59:42.041Z,9.63
2023-01-11T20:02:14.156Z,18.70
2023-01-11T20:04:41.073Z,14.70
2023-01-11T20:07:11.452Z,13.43
2023-01-11T20:09:38.204Z,21.42
2023-01-11T20:12:10.040Z,12.57
2023-01-11T20:14:37.797Z,14.07
2023-01-11T20:17:04.485Z,17.88
2023-01-11T20:19:30.945Z,11.68
2023-01-11T20:21:57.416Z,15.90
2023-01-11T20:24:28.397Z,16.27
2023-01-11T20:26:56.239Z,14.15
2023-01-11T20:29:22.874Z,13.60
2023-01-11T20:31:49.605Z,15.07
2023-01-11T20:34:16.955Z,9.27
2023-01-11T20:36:44.190Z,17.08
2023-01-11T20:39:11.560Z,15.32
2023-01-11T20:41:47.018Z,12.52
2023-01-11T20:44:16.224Z,13.55
2023-01-11T20:46:43.456Z,12.82
2023-01-11T20:49:10.940Z,15.13
2023-01-11T20:51:37.507Z,13.68
2023-01-11T20:54:05.681Z,14.45
2023-01-11T20:56:33.594Z,11.57
2023-01-11T20:59:01.434Z,12.55
2023-01-11T21:01:28.541Z,9.75
2023-01-11T21:03:58.237Z,15.30
2023-01-11T21:06:24.829Z,14.05
2023-01-11T21:08:59.278Z,18.55
2023-01-11T21:11:26.371Z,11.10
2023-01-11T21:16:24.613Z,14.80
2023-01-11T21:19:11.852Z,16.85
2023-01-11T21:21:38.360Z,17.45
2023-01-11T21:24:05.977Z,15.43
2023-01-11T21:26:34.546Z,8.77
2023-01-11T21:29:03.473Z,12.57
2023-01-11T21:31:32.810Z,9.20
2023-01-11T21:34:00.789Z,13.90
2023-01-11T21:36:29.179Z,16.35
2023-01-11T21:38:57.235Z,14.23
2023-01-11T21:41:46.140Z,16.63
2023-01-11T21:44:13.821Z,14.48
2023-01-11T21:46:40.932Z,12.35
2023-01-11T21:49:07.916Z,14.10
2023-01-11T21:51:35.092Z,12.75
2023-01-11T21:54:05.668Z,10.07
2023-01-11T21:56:32.503Z,14.27
2023-01-11T21:58:59.245Z,13.52
2023-01-11T22:01:25.799Z,15.70
2023-01-11T22:03:52.420Z,12.88
2023-01-11T22:06:19.105Z,18.35
2023-01-11T22:08:46.474Z,14.45
2023-01-11T22:11:15.139Z,15.73
2023-01-11T22:13:41.980Z,15.00
2023-01-11T22:16:12.429Z,12.40
2023-01-11T22:18:41.074Z,18.48
2023-01-11T22:21:13.454Z,16.52
2023-01-11T22:23:40.898Z,13.18
2023-01-11T22:26:10.668Z,11.43
2023-01-11T22:28:57.219Z,18.58
2023-01-11T22:31:25.101Z,13.88
2023-01-11T22:33:51.840Z,10.65
2023-01-11T22:36:19.459Z,15.38
2023-01-11T22:38:46.836Z,17.90
2023-01-11T22:41:14.844Z,17.27
2023-01-11T22:43:43.060Z,14.32
2023-01-11T22:46:17.482Z,10.10
2023-01-11T22:48:44.427Z,15.18
2023-01-11T22:51:11.920Z,9.93
2023-01-11T22:53:43.494Z,14.70
2023-01-11T22:56:11.920Z,17.08
2023-01-11T22:58:38.591Z,14.63
2023-01-11T23:01:15.076Z,15.70
2023-01-11T23:03:42.435Z,15.07
2023-01-11T23:06:09.773Z,11.07
2023-01-11T23:08:40.776Z,20.00
2023-01-11T23:11:36.036Z,9.77
2023-01-11T23:14:04.935Z,14.35
2023-01-11T23:16:31.937Z,9.15
2023-01-11T23:18:58.801Z,12.93
2023-01-11T23:21:25.285Z,19.95
2023-01-11T23:23:52.360Z,10.40
2023-01-11T23:26:20.264Z,15.82
2023-01-11T23:28:48.844Z,9.73
2023-01-11T23:31:19.294Z,12.45
2023-01-11T23:33:51.818Z,16.85
2023-01-11T23:36:20.622Z,13.05
2023-01-11T23:38:47.802Z,13.13
2023-01-11T23:41:36.091Z,14.52
2023-01-11T23:44:06.100Z,10.95
2023-01-11T23:46:51.116Z,12.85
2023-01-11T23:49:17.972Z,9.77
2023-01-11T23:51:44.551Z,15.35
2023-01-11T23:54:11.180Z,15.20
2023-01-11T23:56:38.220Z,14.60
2023-01-11T23:59:05.418Z,16.42
